Brooks, Oregon
Current Conditions -  °F | °C
As of 6:56 AM on Friday 31 Oct 2014 (Local Time) from KSLE Reporting Station
Light Rain Light Rain  
Wind Chill: 52°   Ceiling: 6500
Heat Index: 52°   Visibility: 10mi
Dew Point: 49°   Wind: 0mph
Humidity: 89%   Direction: NA
Pressure: 29.76"   Gusts: NA
Location:  45.0168°N, 122.927°W
Report Text: KSLE 311356Z 00000KT 10SM -RA OVC065 11/09 A2976 RMK AO2 SLP077 P0004 T01110094
Loading
Personal Weather Stations






























Interactive Weather Map
Tropical Storm Tracking
New forecast layout! Learn more

10-Day Weather Forecast

Advertisements
Track Severe Weather on mobile